createdAt,value
2018-01-26T00:00:05.359Z,45.87
2018-01-26T00:02:34.301Z,46.83
2018-01-26T00:05:02.184Z,62.10
2018-01-26T00:07:30.191Z,48.53
2018-01-26T00:09:58.162Z,55.80
2018-01-26T00:12:26.062Z,65.47
2018-01-26T00:14:53.923Z,62.47
2018-01-26T00:17:22.563Z,60.83
2018-01-26T00:19:51.423Z,64.10
2018-01-26T00:22:19.384Z,66.20
2018-01-26T00:24:47.370Z,60.20
2018-01-26T00:27:15.363Z,59.70
2018-01-26T00:29:43.543Z,56.53
2018-01-26T00:32:11.342Z,52.63
2018-01-26T00:34:39.154Z,57.20
2018-01-26T00:37:07.102Z,48.27
2018-01-26T00:39:35.023Z,63.03
2018-01-26T00:42:03.203Z,46.57
2018-01-26T00:44:31.483Z,41.93
2018-01-26T00:47:00.841Z,47.33
2018-01-26T00:49:28.760Z,42.13
2018-01-26T00:51:56.640Z,53.97
2018-01-26T00:54:24.442Z,47.87
2018-01-26T00:56:52.261Z,56.43
2018-01-26T00:59:20.400Z,50.37
2018-01-26T01:01:49.179Z,56.97
2018-01-26T01:04:16.959Z,39.63
2018-01-26T01:06:45.500Z,42.57
2018-01-26T01:11:45.279Z,50.17
2018-01-26T01:14:13.173Z,62.03
2018-01-26T01:16:41.559Z,55.37
2018-01-26T01:19:09.862Z,67.07
2018-01-26T01:21:39.326Z,59.33
2018-01-26T01:24:07.141Z,105.03
2018-01-26T01:26:35.002Z,106.77
2018-01-26T01:29:02.799Z,99.90
2018-01-26T01:31:30.740Z,72.13
2018-01-26T01:33:59.379Z,90.20
2018-01-26T01:36:27.259Z,126.27
2018-01-26T01:38:55.159Z,69.67
2018-01-26T01:41:22.999Z,65.33
2018-01-26T01:43:50.759Z,56.27
2018-01-26T01:46:18.959Z,71.57
2018-01-26T01:48:59.339Z,66.87
2018-01-26T01:51:27.339Z,81.57
2018-01-26T01:53:55.179Z,66.17
2018-01-26T01:56:23.040Z,61.27
2018-01-26T01:58:51.179Z,60.23
2018-01-26T02:01:19.101Z,59.93
2018-01-26T02:03:47.279Z,55.40
2018-01-26T02:06:15.199Z,60.53
2018-01-26T02:08:43.019Z,53.53
2018-01-26T02:11:10.802Z,58.07
2018-01-26T02:13:38.719Z,61.80
2018-01-26T02:16:07.099Z,51.90
2018-01-26T02:18:35.279Z,90.00
2018-01-26T02:21:05.144Z,54.47
2018-01-26T02:23:32.962Z,67.33
2018-01-26T02:26:01.220Z,74.57
2018-01-26T02:28:29.180Z,59.93
2018-01-26T02:30:57.100Z,43.90
2018-01-26T02:33:24.960Z,50.20
2018-01-26T02:35:53.181Z,57.60
2018-01-26T02:38:21.280Z,59.57
2018-01-26T02:40:50.620Z,76.77
2018-01-26T02:43:19.219Z,103.37
2018-01-26T02:45:47.259Z,101.17
2018-01-26T02:48:15.080Z,123.90
2018-01-26T02:50:42.940Z,113.80
2018-01-26T02:53:11.139Z,110.30
2018-01-26T02:55:38.944Z,90.07
2018-01-26T02:58:06.780Z,83.93
2018-01-26T03:00:34.620Z,67.30
2018-01-26T03:03:02.580Z,68.23
2018-01-26T03:05:30.440Z,59.20
2018-01-26T03:07:58.479Z,56.93
2018-01-26T03:10:27.041Z,60.10
2018-01-26T03:12:54.939Z,57.57
2018-01-26T03:15:23.179Z,51.80
2018-01-26T03:17:51.099Z,51.37
2018-01-26T03:20:19.601Z,50.60
2018-01-26T03:22:47.639Z,51.57
2018-01-26T03:25:15.899Z,53.67
2018-01-26T03:27:44.000Z,56.47
2018-01-26T03:30:11.839Z,51.53
2018-01-26T03:32:39.679Z,49.00
2018-01-26T03:35:07.585Z,55.77
2018-01-26T03:37:35.501Z,60.47
2018-01-26T03:40:04.539Z,58.93
2018-01-26T03:42:32.300Z,59.53
2018-01-26T03:45:00.220Z,51.43
2018-01-26T03:47:28.260Z,51.50
2018-01-26T03:49:56.080Z,59.03
2018-01-26T03:52:29.539Z,65.27
2018-01-26T03:54:58.279Z,58.30
2018-01-26T03:57:26.139Z,62.97
2018-01-26T03:59:55.379Z,64.83
2018-01-26T04:02:23.220Z,61.83
2018-01-26T04:04:51.139Z,70.07
2018-01-26T04:07:19.059Z,64.43
2018-01-26T04:09:47.879Z,65.87
2018-01-26T04:12:15.639Z,56.10
2018-01-26T04:14:44.220Z,57.17
2018-01-26T04:17:12.180Z,56.13
2018-01-26T04:19:39.960Z,59.57
2018-01-26T04:22:07.819Z,58.40
2018-01-26T04:24:35.739Z,55.33
2018-01-26T04:27:03.661Z,58.67
2018-01-26T04:29:31.579Z,54.73
2018-01-26T04:31:59.499Z,58.80
2018-01-26T04:34:27.340Z,55.17
2018-01-26T04:36:56.702Z,60.33
2018-01-26T04:39:24.880Z,56.07
2018-01-26T04:41:52.661Z,63.60
2018-01-26T04:44:20.860Z,57.03
2018-01-26T04:46:49.240Z,53.37
2018-01-26T04:49:17.081Z,64.43
2018-01-26T04:51:45.700Z,56.53
2018-01-26T04:54:13.820Z,50.07
2018-01-26T04:56:42.422Z,50.00
2018-01-26T04:59:10.545Z,58.00
2018-01-26T05:01:38.599Z,52.83
2018-01-26T05:04:06.519Z,61.80
2018-01-26T05:06:34.899Z,55.97
2018-01-26T05:09:03.100Z,50.87
2018-01-26T05:11:31.140Z,50.73
2018-01-26T05:13:59.461Z,56.53
2018-01-26T05:16:27.637Z,59.83
2018-01-26T05:18:55.540Z,66.47
2018-01-26T05:21:23.300Z,55.07
2018-01-26T05:23:51.340Z,54.17
2018-01-26T05:26:19.382Z,62.93
2018-01-26T05:28:47.220Z,55.03
2018-01-26T05:31:15.021Z,43.77
2018-01-26T05:33:44.380Z,56.13
2018-01-26T05:36:12.881Z,54.23
2018-01-26T05:38:41.339Z,57.27
2018-01-26T05:41:09.284Z,54.83
2018-01-26T05:43:37.380Z,54.03
2018-01-26T05:46:06.460Z,50.93
2018-01-26T05:48:34.620Z,59.03
2018-01-26T05:51:02.382Z,53.63
2018-01-26T05:53:30.284Z,61.17
2018-01-26T05:55:57.998Z,53.60
2018-01-26T05:58:28.401Z,55.27
2018-01-26T06:00:56.160Z,58.00
2018-01-26T06:03:24.759Z,59.17
2018-01-26T06:05:52.502Z,59.97
2018-01-26T06:08:20.174Z,53.93
2018-01-26T06:10:47.980Z,51.77
2018-01-26T06:13:15.743Z,46.40
2018-01-26T06:15:43.503Z,52.20
2018-01-26T06:18:11.283Z,54.30
2018-01-26T06:20:39.505Z,51.87
2018-01-26T06:23:07.306Z,57.20
2018-01-26T06:25:35.063Z,56.23
2018-01-26T06:28:02.811Z,57.57
2018-01-26T06:30:30.663Z,54.00
2018-01-26T06:32:58.404Z,59.83
2018-01-26T06:35:26.144Z,57.50
2018-01-26T06:37:53.923Z,56.27
2018-01-26T06:40:21.703Z,62.70
2018-01-26T06:42:49.484Z,62.17
2018-01-26T06:45:17.363Z,51.53
2018-01-26T06:47:45.103Z,63.30
2018-01-26T06:50:12.904Z,54.47
2018-01-26T06:52:40.683Z,51.40
2018-01-26T06:55:08.461Z,53.37
2018-01-26T06:57:36.161Z,55.80
2018-01-26T07:00:04.104Z,48.47
2018-01-26T07:02:31.863Z,37.97
2018-01-26T07:04:59.601Z,45.03
2018-01-26T07:07:27.358Z,44.70
2018-01-26T07:09:55.899Z,51.03
2018-01-26T07:12:23.647Z,46.83
2018-01-26T07:14:51.543Z,45.47
2018-01-26T07:17:19.318Z,50.33
2018-01-26T07:19:47.379Z,44.83
2018-01-26T07:22:15.144Z,49.60
2018-01-26T07:24:42.842Z,46.67
2018-01-26T07:27:10.578Z,50.70
2018-01-26T07:29:38.540Z,46.93
2018-01-26T07:32:06.298Z,49.80
2018-01-26T07:34:34.122Z,47.83
2018-01-26T07:37:01.938Z,47.03
2018-01-26T07:39:29.702Z,47.47
2018-01-26T07:41:57.498Z,44.10
2018-01-26T07:44:25.317Z,45.50
2018-01-26T07:46:53.118Z,49.03
2018-01-26T07:49:20.814Z,46.10
2018-01-26T07:51:48.680Z,45.43
2018-01-26T07:54:16.419Z,53.40
2018-01-26T07:56:44.139Z,46.57
2018-01-26T07:59:12.254Z,48.03
2018-01-26T08:01:41.565Z,43.47
2018-01-26T08:04:12.244Z,43.00
2018-01-26T08:06:41.255Z,39.87
2018-01-26T08:09:10.395Z,44.30
2018-01-26T08:11:39.055Z,42.57
2018-01-26T08:14:09.075Z,46.77
2018-01-26T08:16:38.025Z,41.20
2018-01-26T08:19:08.435Z,40.23
2018-01-26T08:21:37.195Z,37.63
2018-01-26T08:24:05.245Z,34.70
2018-01-26T08:26:36.425Z,32.70
2018-01-26T08:29:04.465Z,30.10
2018-01-26T08:31:32.535Z,29.23
2018-01-26T08:34:00.665Z,34.83
2018-01-26T08:36:29.614Z,30.67
2018-01-26T08:38:58.155Z,31.07
2018-01-26T08:41:28.924Z,31.57
2018-01-26T08:43:57.075Z,36.23
2018-01-26T08:46:25.985Z,32.33
2018-01-26T08:48:54.586Z,29.47
2018-01-26T08:51:23.146Z,28.10
2018-01-26T08:53:53.215Z,34.17
2018-01-26T08:56:21.684Z,29.47
2018-01-26T08:58:51.005Z,35.73
2018-01-26T09:01:20.475Z,38.40
2018-01-26T09:03:48.666Z,40.23
2018-01-26T09:06:17.425Z,46.80
2018-01-26T09:08:45.564Z,45.30
2018-01-26T09:11:13.845Z,47.53
2018-01-26T09:13:46.115Z,46.80
2018-01-26T09:16:16.166Z,42.43
2018-01-26T09:18:45.346Z,46.37
2018-01-26T09:21:14.446Z,42.30
2018-01-26T09:23:42.560Z,42.67
2018-01-26T09:26:11.165Z,45.10
2018-01-26T09:28:40.028Z,42.97
2018-01-26T09:31:09.137Z,42.47
2018-01-26T09:33:37.828Z,41.33
2018-01-26T09:36:07.935Z,41.47
2018-01-26T09:38:35.966Z,40.83
2018-01-26T09:41:04.625Z,40.67
2018-01-26T09:43:33.426Z,38.80
2018-01-26T09:46:03.495Z,38.67
2018-01-26T09:48:33.304Z,38.97
2018-01-26T09:51:03.225Z,38.67
2018-01-26T09:53:32.135Z,38.07
2018-01-26T09:56:01.936Z,45.17
2018-01-26T09:58:31.236Z,38.00
2018-01-26T10:00:59.426Z,45.50
2018-01-26T10:03:27.485Z,46.03
2018-01-26T10:05:57.244Z,48.17
2018-01-26T10:08:25.484Z,45.23
2018-01-26T10:10:54.425Z,46.90
2018-01-26T10:13:22.625Z,42.73
2018-01-26T10:15:50.745Z,49.70
2018-01-26T10:18:19.126Z,45.73
2018-01-26T10:20:47.736Z,41.90
2018-01-26T10:23:18.004Z,45.50
2018-01-26T10:25:46.224Z,45.03
2018-01-26T10:28:14.195Z,43.77
2018-01-26T10:30:42.376Z,44.80
2018-01-26T10:33:10.494Z,44.10
2018-01-26T10:35:38.685Z,41.87
2018-01-26T10:38:06.696Z,40.80
2018-01-26T10:40:34.694Z,40.70
2018-01-26T10:43:02.815Z,43.07
2018-01-26T10:45:30.796Z,40.23
2018-01-26T10:47:58.884Z,40.70
2018-01-26T10:50:26.986Z,42.00
2018-01-26T10:52:55.065Z,44.10
2018-01-26T10:55:23.287Z,40.73
2018-01-26T10:57:51.306Z,46.57
2018-01-26T11:00:19.415Z,46.60
2018-01-26T11:02:47.499Z,44.27
2018-01-26T11:05:15.705Z,41.30
2018-01-26T11:07:43.766Z,45.10
2018-01-26T11:10:11.885Z,45.27
2018-01-26T11:12:40.025Z,46.27
2018-01-26T11:15:08.104Z,44.73
2018-01-26T11:17:36.284Z,41.47
2018-01-26T11:20:05.245Z,40.27
2018-01-26T11:22:33.264Z,44.33
2018-01-26T11:25:01.426Z,45.47
2018-01-26T11:27:30.355Z,38.87
2018-01-26T11:29:58.404Z,45.13
2018-01-26T11:32:26.595Z,42.37
2018-01-26T11:34:54.725Z,42.40
2018-01-26T11:37:23.554Z,50.27
2018-01-26T11:39:51.684Z,47.33
2018-01-26T11:42:19.768Z,49.93
2018-01-26T11:44:47.907Z,46.40
2018-01-26T11:47:15.885Z,50.20
2018-01-26T11:49:46.375Z,46.27
2018-01-26T11:52:14.565Z,47.47
2018-01-26T11:54:42.524Z,44.33
2018-01-26T11:57:10.768Z,45.80
2018-01-26T11:59:38.845Z,41.57
2018-01-26T12:02:07.235Z,42.63
2018-01-26T12:04:37.656Z,39.37
2018-01-26T12:07:05.798Z,44.50
2018-01-26T12:09:33.904Z,43.57
2018-01-26T12:12:02.026Z,40.47
2018-01-26T12:14:30.245Z,43.17
2018-01-26T12:16:58.345Z,40.27
2018-01-26T12:19:26.635Z,41.13
2018-01-26T12:21:57.046Z,43.60
2018-01-26T12:24:25.195Z,46.60
2018-01-26T12:26:55.925Z,41.90
2018-01-26T12:29:24.004Z,44.70
2018-01-26T12:31:52.745Z,41.67
2018-01-26T12:34:23.046Z,48.13
2018-01-26T12:36:51.064Z,42.17
2018-01-26T12:39:19.385Z,42.30
2018-01-26T12:41:48.346Z,40.43
2018-01-26T12:44:16.435Z,44.00
2018-01-26T12:46:46.723Z,41.67
2018-01-26T12:49:14.805Z,38.50
2018-01-26T12:51:43.681Z,44.57
2018-01-26T12:54:12.395Z,43.87
2018-01-26T12:56:40.415Z,39.73
2018-01-26T12:59:09.497Z,42.03
2018-01-26T13:01:37.720Z,46.87
2018-01-26T13:04:05.825Z,47.47
2018-01-26T13:06:33.955Z,50.10
2018-01-26T13:09:02.165Z,47.10
2018-01-26T13:11:31.726Z,42.67
2018-01-26T13:13:59.785Z,45.57
2018-01-26T13:16:27.787Z,46.90
2018-01-26T13:18:58.015Z,42.57
2018-01-26T13:21:26.449Z,45.47
2018-01-26T13:23:54.555Z,47.07
2018-01-26T13:26:22.816Z,43.83
2018-01-26T13:28:50.895Z,43.70
2018-01-26T13:31:19.856Z,43.87
2018-01-26T13:33:47.995Z,49.77
2018-01-26T13:36:16.086Z,40.60
2018-01-26T13:38:44.096Z,40.73
2018-01-26T13:41:13.216Z,41.87
2018-01-26T13:43:41.576Z,42.83
2018-01-26T13:46:09.826Z,44.83
2018-01-26T13:48:37.855Z,49.97
2018-01-26T13:51:06.027Z,51.23
2018-01-26T13:53:34.225Z,49.50
2018-01-26T13:56:02.396Z,52.03
2018-01-26T13:58:31.385Z,52.60
2018-01-26T14:00:59.616Z,52.10
2018-01-26T14:03:28.584Z,47.60
2018-01-26T14:05:57.175Z,46.53
2018-01-26T14:08:25.165Z,47.47
2018-01-26T14:10:55.706Z,52.00
2018-01-26T14:13:23.786Z,54.60
2018-01-26T14:15:51.954Z,50.63
2018-01-26T14:18:20.094Z,51.30
2018-01-26T14:20:48.165Z,54.53
2018-01-26T14:23:16.195Z,48.57
2018-01-26T14:25:44.246Z,51.77
2018-01-26T14:28:12.294Z,53.03
2018-01-26T14:30:40.405Z,51.83
2018-01-26T14:33:08.812Z,56.93
2018-01-26T14:35:36.835Z,49.20
2018-01-26T14:38:04.945Z,53.73
2018-01-26T14:40:34.005Z,42.63
2018-01-26T14:43:02.176Z,50.10
2018-01-26T14:45:30.335Z,53.43
2018-01-26T14:47:58.376Z,50.97
2018-01-26T14:50:26.496Z,58.73
2018-01-26T14:52:55.184Z,53.77
2018-01-26T14:55:24.816Z,48.67
2018-01-26T14:57:53.246Z,48.80
2018-01-26T15:00:24.010Z,56.97
2018-01-26T15:05:23.154Z,47.50
2018-01-26T15:07:51.204Z,46.73
2018-01-26T15:10:19.341Z,51.37
2018-01-26T15:12:47.532Z,48.17
2018-01-26T15:15:15.554Z,58.47
2018-01-26T15:17:43.664Z,53.30
2018-01-26T15:20:11.716Z,54.43
2018-01-26T15:22:40.576Z,58.80
2018-01-26T15:25:08.815Z,50.23
2018-01-26T15:27:36.984Z,56.83
2018-01-26T15:32:39.185Z,58.37
2018-01-26T15:35:07.315Z,65.90
2018-01-26T15:37:35.625Z,69.70
2018-01-26T15:40:03.995Z,76.77
2018-01-26T15:42:32.654Z,61.47
2018-01-26T15:45:01.704Z,72.57
2018-01-26T15:47:30.025Z,84.33
2018-01-26T15:49:58.274Z,74.17
2018-01-26T15:52:26.475Z,70.67
2018-01-26T15:54:56.435Z,66.30
2018-01-26T15:57:24.576Z,68.63
2018-01-26T15:59:52.695Z,61.73
2018-01-26T16:02:20.844Z,64.30
2018-01-26T16:04:49.215Z,63.73
2018-01-26T16:07:17.525Z,71.30
2018-01-26T16:09:45.754Z,76.73
2018-01-26T16:12:15.485Z,57.47
2018-01-26T16:14:43.595Z,58.07
2018-01-26T16:17:11.886Z,66.03
2018-01-26T16:19:42.315Z,63.97
2018-01-26T16:22:10.456Z,60.23
2018-01-26T16:24:41.865Z,57.67
2018-01-26T16:27:10.144Z,59.43
2018-01-26T16:29:38.405Z,55.73
2018-01-26T16:32:06.546Z,58.50
2018-01-26T16:34:35.515Z,57.13
2018-01-26T16:39:36.475Z,54.33
2018-01-26T16:42:08.236Z,57.40
2018-01-26T16:44:38.195Z,55.20
2018-01-26T16:47:06.265Z,58.47
2018-01-26T16:49:34.265Z,54.33
2018-01-26T16:52:03.475Z,61.97
2018-01-26T16:54:31.605Z,53.37
2018-01-26T16:56:59.805Z,66.20
2018-01-26T16:59:28.645Z,63.53
2018-01-26T17:01:56.794Z,86.07
2018-01-26T17:04:25.045Z,64.50
2018-01-26T17:06:53.291Z,64.77
2018-01-26T17:09:22.265Z,75.30
2018-01-26T17:11:50.365Z,61.97
2018-01-26T17:14:20.626Z,64.80
2018-01-26T17:16:48.774Z,63.97
2018-01-26T17:19:18.405Z,69.37
2018-01-26T17:21:46.585Z,60.83
2018-01-26T17:24:14.974Z,68.00
2018-01-26T17:26:43.166Z,65.13
2018-01-26T17:29:11.406Z,66.83
2018-01-26T17:31:39.486Z,65.07
2018-01-26T17:34:08.535Z,60.63
2018-01-26T17:36:37.285Z,61.77
2018-01-26T17:39:06.425Z,68.10
2018-01-26T17:41:34.536Z,61.73
2018-01-26T17:44:02.795Z,62.97
2018-01-26T17:46:31.134Z,58.87
2018-01-26T17:48:59.854Z,64.63
2018-01-26T17:51:28.074Z,64.30
2018-01-26T17:53:56.235Z,66.97
2018-01-26T17:56:24.375Z,65.80
2018-01-26T17:58:53.194Z,70.13
2018-01-26T18:01:23.454Z,69.73
2018-01-26T18:03:51.664Z,69.10
2018-01-26T18:06:19.875Z,67.33
2018-01-26T18:08:47.985Z,65.67
2018-01-26T18:11:16.376Z,66.30
2018-01-26T18:13:44.744Z,73.87
2018-01-26T18:16:14.495Z,76.47
2018-01-26T18:18:42.765Z,70.67
2018-01-26T18:21:10.826Z,73.07
2018-01-26T18:23:39.123Z,70.87
2018-01-26T18:26:07.291Z,70.77
2018-01-26T18:28:35.654Z,69.87
2018-01-26T18:31:03.994Z,77.70
2018-01-26T18:33:32.115Z,65.53
2018-01-26T18:36:00.216Z,71.17
2018-01-26T18:38:28.364Z,69.93
2018-01-26T18:40:56.445Z,71.57
2018-01-26T18:43:25.374Z,70.80
2018-01-26T18:45:53.496Z,70.80
2018-01-26T18:48:21.736Z,70.43
2018-01-26T18:50:50.055Z,67.47
2018-01-26T18:53:18.105Z,68.27
2018-01-26T18:55:46.304Z,66.03
2018-01-26T18:58:14.685Z,66.93
2018-01-26T19:00:43.416Z,71.50
2018-01-26T19:03:12.306Z,67.80
2018-01-26T19:05:42.134Z,67.70
2018-01-26T19:08:10.494Z,67.63
2018-01-26T19:10:38.615Z,64.47
2018-01-26T19:13:07.315Z,64.80
2018-01-26T19:15:35.385Z,63.00
2018-01-26T19:18:07.556Z,60.10
2018-01-26T19:20:35.614Z,84.43
2018-01-26T19:23:03.845Z,69.33
2018-01-26T19:25:32.145Z,77.57
2018-01-26T19:28:00.254Z,72.73
2018-01-26T19:30:28.454Z,66.73
2018-01-26T19:32:56.545Z,71.67
2018-01-26T19:35:25.545Z,76.97
2018-01-26T19:37:53.705Z,63.93
2018-01-26T19:40:21.807Z,58.30
2018-01-26T19:42:49.946Z,66.80
2018-01-26T19:45:18.115Z,59.73
2018-01-26T19:47:46.654Z,66.90
2018-01-26T19:50:15.535Z,65.33
2018-01-26T19:52:43.745Z,56.27
2018-01-26T19:55:11.846Z,60.97
2018-01-26T19:57:40.155Z,67.93
2018-01-26T20:00:09.716Z,72.23
2018-01-26T20:02:38.985Z,79.60
2018-01-26T20:05:24.226Z,69.67
2018-01-26T20:07:55.176Z,75.27
2018-01-26T20:10:23.365Z,75.40
2018-01-26T20:12:56.776Z,78.37
2018-01-26T20:15:25.005Z,74.03
2018-01-26T20:17:53.364Z,67.17
2018-01-26T20:20:22.315Z,74.50
2018-01-26T20:22:50.426Z,70.63
2018-01-26T20:25:18.536Z,61.33
2018-01-26T20:27:46.785Z,55.47
2018-01-26T20:30:14.824Z,52.30
2018-01-26T20:32:42.806Z,59.13
2018-01-26T20:35:11.025Z,72.37
2018-01-26T20:37:39.036Z,66.43
2018-01-26T20:40:07.306Z,73.73
2018-01-26T20:42:35.505Z,82.23
2018-01-26T20:45:03.786Z,67.93
2018-01-26T20:47:31.924Z,80.03
2018-01-26T20:50:00.076Z,76.47
2018-01-26T20:52:28.256Z,79.60
2018-01-26T20:54:56.486Z,71.17
2018-01-26T20:57:24.595Z,67.20
2018-01-26T20:59:52.796Z,77.93
2018-01-26T21:02:20.916Z,74.63
2018-01-26T21:04:49.055Z,81.43
2018-01-26T21:07:17.095Z,76.60
2018-01-26T21:09:45.216Z,69.23
2018-01-26T21:12:13.505Z,69.50
2018-01-26T21:14:41.515Z,71.53
2018-01-26T21:17:09.646Z,62.37
2018-01-26T21:19:37.724Z,63.50
2018-01-26T21:22:05.804Z,63.23
2018-01-26T21:24:33.951Z,68.90
2018-01-26T21:27:02.055Z,61.77
2018-01-26T21:29:30.266Z,60.53
2018-01-26T21:31:58.285Z,68.30
2018-01-26T21:34:26.321Z,63.13
2018-01-26T21:39:26.656Z,64.50
2018-01-26T21:41:54.805Z,60.23
2018-01-26T21:44:23.656Z,57.23
2018-01-26T21:46:51.785Z,53.23
2018-01-26T21:49:19.905Z,50.97
2018-01-26T21:51:47.976Z,56.33
2018-01-26T21:54:16.095Z,56.00
2018-01-26T21:56:44.196Z,59.40
2018-01-26T21:59:12.295Z,68.17
2018-01-26T22:01:40.486Z,67.23
2018-01-26T22:04:09.375Z,63.33
2018-01-26T22:06:43.861Z,55.70
2018-01-26T22:09:11.791Z,53.53
2018-01-26T22:11:39.601Z,60.87
2018-01-26T22:14:07.460Z,58.07
2018-01-26T22:16:36.261Z,57.87
2018-01-26T22:19:04.201Z,58.17
2018-01-26T22:21:33.422Z,53.97
2018-01-26T22:24:01.622Z,56.93
2018-01-26T22:26:30.238Z,54.57
2018-01-26T22:28:58.740Z,59.90
2018-01-26T22:31:26.500Z,53.23
2018-01-26T22:33:54.844Z,53.07
2018-01-26T22:36:22.878Z,69.83
2018-01-26T22:38:50.891Z,66.60
2018-01-26T22:41:18.783Z,63.50
2018-01-26T22:43:46.743Z,78.83
2018-01-26T22:46:14.730Z,61.30
2018-01-26T22:48:42.864Z,49.97
2018-01-26T22:51:10.865Z,51.13
2018-01-26T22:53:38.683Z,48.93
2018-01-26T22:56:06.563Z,48.30
2018-01-26T22:58:34.593Z,67.67
2018-01-26T23:01:03.301Z,98.07
2018-01-26T23:03:32.120Z,85.20
2018-01-26T23:06:00.059Z,83.57
2018-01-26T23:08:28.043Z,45.93
2018-01-26T23:10:55.962Z,52.17
2018-01-26T23:13:24.183Z,60.07
2018-01-26T23:15:52.962Z,68.93
2018-01-26T23:18:21.010Z,52.00
2018-01-26T23:20:49.023Z,45.83
2018-01-26T23:23:17.502Z,44.63
2018-01-26T23:25:45.526Z,39.43
2018-01-26T23:28:13.860Z,39.70
2018-01-26T23:30:41.721Z,38.50
2018-01-26T23:33:09.684Z,45.50
2018-01-26T23:35:37.580Z,36.90
2018-01-26T23:38:05.824Z,45.13
2018-01-26T23:40:33.901Z,43.47
2018-01-26T23:43:01.741Z,40.10
2018-01-26T23:45:29.642Z,39.97
2018-01-26T23:47:57.839Z,38.07
2018-01-26T23:50:25.741Z,34.57
2018-01-26T23:52:53.520Z,42.03
2018-01-26T23:55:21.340Z,33.97
2018-01-26T23:57:49.383Z,33.47
